createdAt,value
2024-01-16T00:00:58.479Z,19.77
2024-01-16T00:01:58.424Z,19.78
2024-01-16T00:02:58.410Z,19.79
2024-01-16T00:55:56.907Z,19.50
2024-01-16T00:56:57.850Z,19.55
2024-01-16T00:57:57.863Z,19.53
2024-01-16T00:58:57.882Z,19.50
2024-01-16T00:59:57.901Z,19.49
2024-01-16T01:00:57.932Z,19.46
2024-01-16T01:01:57.929Z,19.43
2024-01-16T01:02:57.952Z,19.41
2024-01-16T01:03:58.086Z,19.40
2024-01-16T01:04:58.020Z,19.37
2024-01-16T01:05:58.141Z,19.36
2024-01-16T01:06:58.022Z,19.34
2024-01-16T01:07:58.046Z,19.33
2024-01-16T01:08:58.060Z,19.32
2024-01-16T01:09:58.090Z,19.31
2024-01-16T01:10:58.154Z,19.32
2024-01-16T01:11:58.161Z,19.31
2024-01-16T01:12:58.157Z,19.31
2024-01-16T01:13:58.220Z,19.29
2024-01-16T01:14:58.296Z,19.28
2024-01-16T01:15:58.234Z,19.29
2024-01-16T01:16:58.239Z,19.29
2024-01-16T01:17:58.354Z,19.28
2024-01-16T01:18:58.326Z,19.29
2024-01-16T01:19:58.322Z,19.28
2024-01-16T01:20:58.343Z,19.29
2024-01-16T01:21:58.367Z,19.28
2024-01-16T01:22:58.392Z,19.29
2024-01-16T01:23:58.422Z,19.29
2024-01-16T01:24:58.450Z,19.31
2024-01-16T01:25:58.500Z,19.31
2024-01-16T01:26:58.501Z,19.34
2024-01-16T01:27:58.540Z,19.33
2024-01-16T01:28:58.535Z,19.32
2024-01-16T01:29:58.550Z,19.33
2024-01-16T01:30:58.731Z,19.32
2024-01-16T01:31:58.589Z,19.30
2024-01-16T01:32:58.725Z,19.29
2024-01-16T01:33:58.740Z,19.28
2024-01-16T01:34:58.657Z,19.27
2024-01-16T01:35:58.783Z,19.27
2024-01-16T01:36:58.686Z,19.25
2024-01-16T01:37:58.709Z,19.26
2024-01-16T01:38:58.745Z,19.25
2024-01-16T01:39:58.760Z,19.24
2024-01-16T01:40:58.787Z,19.24
2024-01-16T01:41:58.841Z,19.25
2024-01-16T01:42:58.819Z,19.24
2024-01-16T01:43:58.860Z,19.22
2024-01-16T01:44:58.863Z,19.23
2024-01-16T01:45:58.938Z,19.22
2024-01-16T01:46:58.897Z,19.23
2024-01-16T01:47:59.062Z,19.22
2024-01-16T01:48:58.999Z,19.22
2024-01-16T01:49:58.960Z,19.22
2024-01-16T01:50:58.979Z,19.21
2024-01-16T01:51:59.009Z,19.21
2024-01-16T01:52:59.037Z,19.21
2024-01-16T01:53:59.053Z,19.22
2024-01-16T01:54:59.073Z,19.21
2024-01-16T01:55:59.135Z,19.21
2024-01-16T01:56:59.149Z,19.21
2024-01-16T01:57:59.156Z,19.21
2024-01-16T01:58:59.176Z,19.22
2024-01-16T01:59:59.220Z,19.22
2024-01-16T02:00:59.243Z,19.20
2024-01-16T02:01:59.242Z,19.21
2024-01-16T02:02:59.304Z,19.23
2024-01-16T02:03:59.292Z,19.24
2024-01-16T02:04:59.373Z,19.23
2024-01-16T02:05:59.493Z,19.24
2024-01-16T02:06:59.358Z,19.24
2024-01-16T02:07:59.373Z,19.22
2024-01-16T02:08:59.412Z,19.22
2024-01-16T02:09:59.445Z,19.22
2024-01-16T02:10:59.445Z,19.22
2024-01-16T02:11:59.463Z,19.21
2024-01-16T02:12:59.476Z,19.21
2024-01-16T02:13:59.506Z,19.21
2024-01-16T02:14:59.530Z,19.21
2024-01-16T02:15:59.643Z,19.21
2024-01-16T02:16:59.575Z,19.22
2024-01-16T02:17:59.690Z,19.21
2024-01-16T02:18:59.690Z,19.20
2024-01-16T02:19:59.735Z,19.20
2024-01-16T02:20:59.786Z,19.20
2024-01-16T02:21:59.829Z,19.20
2024-01-16T02:22:59.866Z,19.20
2024-01-16T02:23:59.914Z,19.20
2024-01-16T02:24:59.989Z,19.20
2024-01-16T02:26:00.031Z,19.21
2024-01-16T02:27:00.067Z,19.22
2024-01-16T02:28:00.129Z,19.22
2024-01-16T02:29:00.167Z,19.22
2024-01-16T02:30:00.294Z,19.22
2024-01-16T02:31:00.309Z,19.22
2024-01-16T02:32:00.309Z,19.21
2024-01-16T02:33:00.484Z,19.22
2024-01-16T02:34:00.511Z,19.21
2024-01-16T02:35:00.398Z,19.21
2024-01-16T02:36:00.443Z,19.20
2024-01-16T02:37:07.600Z,19.16
2024-01-16T02:38:08.677Z,19.18
2024-01-16T02:39:08.636Z,19.16
2024-01-16T02:40:08.637Z,19.16
2024-01-16T02:41:08.688Z,19.16
2024-01-16T02:42:08.665Z,19.16
2024-01-16T02:43:08.685Z,19.17
2024-01-16T02:44:08.725Z,19.18
2024-01-16T02:45:08.701Z,19.18
2024-01-16T02:46:08.708Z,19.17
2024-01-16T02:47:08.781Z,19.19
2024-01-16T02:48:08.835Z,19.20
2024-01-16T02:49:08.832Z,19.20
2024-01-16T02:50:08.785Z,19.19
2024-01-16T02:51:08.755Z,19.19
2024-01-16T02:52:08.780Z,19.19
2024-01-16T02:53:08.825Z,19.21
2024-01-16T02:54:08.788Z,19.20
2024-01-16T02:55:08.797Z,19.19
2024-01-16T02:56:08.861Z,19.19
2024-01-16T02:57:08.844Z,19.20
2024-01-16T02:58:08.831Z,19.20
2024-01-16T02:59:08.966Z,19.18
2024-01-16T03:00:08.874Z,19.19
2024-01-16T03:01:08.916Z,19.19
2024-01-16T03:02:08.919Z,19.21
2024-01-16T03:03:08.962Z,19.19
2024-01-16T03:04:08.893Z,19.19
2024-01-16T03:05:08.996Z,19.19
2024-01-16T03:06:09.004Z,19.18
2024-01-16T03:07:08.909Z,19.18
2024-01-16T03:08:09.011Z,19.18
2024-01-16T03:09:08.920Z,19.21
2024-01-16T03:10:08.928Z,19.21
2024-01-16T03:11:08.941Z,19.21
2024-01-16T03:12:08.930Z,19.23
2024-01-16T03:13:08.954Z,19.21
2024-01-16T03:14:09.006Z,19.22
2024-01-16T03:15:08.970Z,19.22
2024-01-16T03:16:08.985Z,19.24
2024-01-16T03:17:09.080Z,19.22
2024-01-16T03:18:09.303Z,19.24
2024-01-16T03:19:09.254Z,19.23
2024-01-16T03:20:09.182Z,19.23
2024-01-16T03:21:09.168Z,19.23
2024-01-16T03:22:09.196Z,19.23
2024-01-16T03:23:09.308Z,19.21
2024-01-16T03:24:09.280Z,19.22
2024-01-16T03:25:09.327Z,19.20
2024-01-16T03:26:09.412Z,19.22
2024-01-16T03:27:09.422Z,19.21
2024-01-16T03:28:09.550Z,19.20
2024-01-16T03:29:09.579Z,19.21
2024-01-16T03:30:09.944Z,19.22
2024-01-16T03:31:09.643Z,19.23
2024-01-16T03:32:09.692Z,19.22
2024-01-16T03:33:09.924Z,19.22
2024-01-16T03:34:09.770Z,19.20
2024-01-16T03:35:09.814Z,19.19
2024-01-16T03:36:09.816Z,19.18
2024-01-16T03:37:09.851Z,19.18
2024-01-16T03:38:09.931Z,19.17
2024-01-16T03:39:09.967Z,19.17
2024-01-16T03:40:10.013Z,19.16
2024-01-16T03:41:10.201Z,19.16
2024-01-16T03:42:10.103Z,19.17
2024-01-16T03:43:10.145Z,19.18
2024-01-16T03:44:10.208Z,19.16
2024-01-16T03:45:10.244Z,19.16
2024-01-16T03:46:10.305Z,19.18
2024-01-16T03:47:10.358Z,19.19
2024-01-16T03:48:10.477Z,19.18
2024-01-16T03:49:10.436Z,19.18
2024-01-16T03:50:10.456Z,19.16
2024-01-16T03:51:10.533Z,19.18
2024-01-16T03:52:10.555Z,19.16
2024-01-16T03:53:10.637Z,19.16
2024-01-16T03:54:10.639Z,19.16
2024-01-16T03:55:10.692Z,19.16
2024-01-16T03:56:10.763Z,19.15
2024-01-16T03:57:10.775Z,19.15
2024-01-16T03:58:13.464Z,19.14
2024-01-16T03:59:10.938Z,19.14
2024-01-16T04:00:10.836Z,19.13
2024-01-16T04:01:10.902Z,19.13
2024-01-16T04:02:10.880Z,19.11
2024-01-16T04:03:10.854Z,19.13
2024-01-16T04:04:10.935Z,19.12
2024-01-16T04:05:11.001Z,19.12
2024-01-16T04:06:10.956Z,19.11
2024-01-16T04:07:10.901Z,19.11
2024-01-16T04:08:10.959Z,19.11
2024-01-16T04:09:10.900Z,19.11
2024-01-16T04:10:10.936Z,19.11
2024-01-16T04:11:10.958Z,19.12
2024-01-16T04:12:10.922Z,19.12
2024-01-16T04:13:10.937Z,19.11
2024-01-16T04:14:10.983Z,19.11
2024-01-16T04:15:10.960Z,19.11
2024-01-16T04:16:10.981Z,19.11
2024-01-16T04:17:11.012Z,19.09
2024-01-16T04:18:11.044Z,19.11
2024-01-16T04:19:11.061Z,19.11
2024-01-16T04:20:11.060Z,19.11
2024-01-16T04:21:11.001Z,19.10
2024-01-16T04:22:11.017Z,19.12
2024-01-16T04:23:11.093Z,19.14
2024-01-16T04:24:11.029Z,19.17
2024-01-16T04:25:11.043Z,19.20
2024-01-16T04:26:11.073Z,19.23
2024-01-16T04:27:11.047Z,19.25
2024-01-16T04:28:11.088Z,19.26
2024-01-16T04:29:11.082Z,19.26
2024-01-16T04:30:11.057Z,19.28
2024-01-16T04:31:11.051Z,19.28
2024-01-16T04:32:18.242Z,19.28
2024-01-16T04:33:19.365Z,19.29
2024-01-16T04:34:19.361Z,19.30
2024-01-16T04:35:19.257Z,19.31
2024-01-16T04:36:19.219Z,19.31
2024-01-16T04:37:19.224Z,19.32
2024-01-16T04:38:19.292Z,19.33
2024-01-16T04:39:19.215Z,19.34
2024-01-16T04:40:19.231Z,19.36
2024-01-16T04:41:19.241Z,19.37
2024-01-16T04:42:19.221Z,19.40
2024-01-16T04:43:19.231Z,19.40
2024-01-16T04:44:19.265Z,19.40
2024-01-16T04:45:19.243Z,19.42
2024-01-16T04:46:19.244Z,19.42
2024-01-16T04:47:19.256Z,19.43
2024-01-16T04:48:19.311Z,19.44
2024-01-16T04:49:19.324Z,19.43
2024-01-16T04:50:19.309Z,19.43
2024-01-16T04:51:19.235Z,19.43
2024-01-16T04:52:19.236Z,19.45
2024-01-16T04:53:19.240Z,19.46
2024-01-16T04:54:19.256Z,19.47
2024-01-16T04:55:19.232Z,19.46
2024-01-16T04:56:19.267Z,19.48
2024-01-16T04:57:19.231Z,19.49
2024-01-16T04:58:19.226Z,19.49
2024-01-16T04:59:19.305Z,19.49
2024-01-16T05:00:19.206Z,19.50
2024-01-16T05:01:19.204Z,19.49
2024-01-16T05:02:19.248Z,19.50
2024-01-16T05:03:19.251Z,19.51
2024-01-16T05:04:19.251Z,19.50
2024-01-16T05:05:19.372Z,19.50
2024-01-16T05:06:19.513Z,19.50
2024-01-16T05:07:19.390Z,19.51
2024-01-16T05:08:19.535Z,19.53
2024-01-16T05:09:19.530Z,19.52
2024-01-16T05:10:19.610Z,19.53
2024-01-16T05:11:19.645Z,19.53
2024-01-16T05:12:19.672Z,19.53
2024-01-16T05:13:19.739Z,19.54
2024-01-16T05:14:19.836Z,19.55
2024-01-16T05:15:19.866Z,19.55
2024-01-16T05:16:19.936Z,19.55
2024-01-16T05:17:20.140Z,19.56
2024-01-16T05:18:20.230Z,19.56
2024-01-16T05:19:20.157Z,19.56
2024-01-16T05:20:20.227Z,19.58
2024-01-16T05:21:20.218Z,19.57
2024-01-16T05:22:20.266Z,19.56
2024-01-16T05:23:20.404Z,19.56
2024-01-16T05:24:20.426Z,19.57
2024-01-16T05:25:20.476Z,19.58
2024-01-16T05:26:20.559Z,19.58
2024-01-16T05:27:20.567Z,19.57
2024-01-16T05:28:20.622Z,19.56
2024-01-16T05:29:20.695Z,19.57
2024-01-16T05:30:20.747Z,19.57
2024-01-16T05:31:20.849Z,19.57
2024-01-16T05:32:20.920Z,19.58
2024-01-16T05:33:21.042Z,19.59
2024-01-16T05:34:21.039Z,19.59
2024-01-16T05:35:22.720Z,19.58
2024-01-16T05:36:21.056Z,19.58
2024-01-16T05:37:21.080Z,19.59
2024-01-16T05:38:21.068Z,19.58
2024-01-16T05:39:21.087Z,19.58
2024-01-16T05:40:21.041Z,19.58
2024-01-16T05:41:21.047Z,19.60
2024-01-16T05:42:21.067Z,19.59
2024-01-16T05:43:21.081Z,19.58
2024-01-16T05:44:21.088Z,19.58
2024-01-16T05:45:21.046Z,19.58
2024-01-16T05:46:21.054Z,19.59
2024-01-16T05:47:21.107Z,19.59
2024-01-16T05:48:21.208Z,19.58
2024-01-16T05:49:21.157Z,19.58
2024-01-16T05:50:21.140Z,19.58
2024-01-16T05:51:21.108Z,19.58
2024-01-16T05:52:21.056Z,19.58
2024-01-16T05:53:21.097Z,19.59
2024-01-16T05:54:21.053Z,19.60
2024-01-16T05:55:21.067Z,19.60
2024-01-16T05:56:21.159Z,19.61
2024-01-16T05:57:21.086Z,19.62
2024-01-16T05:58:21.171Z,19.62
2024-01-16T05:59:21.277Z,19.62
2024-01-16T06:00:21.268Z,19.62
2024-01-16T06:01:21.344Z,19.61
2024-01-16T06:02:21.428Z,19.62
2024-01-16T06:03:21.460Z,19.62
2024-01-16T06:04:21.551Z,19.62
2024-01-16T06:05:21.624Z,19.62
2024-01-16T06:06:21.674Z,19.63
2024-01-16T06:07:21.704Z,19.63
2024-01-16T06:08:21.798Z,19.62
2024-01-16T06:09:21.839Z,19.63
2024-01-16T06:10:21.895Z,19.64
2024-01-16T06:11:21.985Z,19.65
2024-01-16T06:12:22.031Z,19.67
2024-01-16T06:13:22.070Z,19.69
2024-01-16T06:14:22.185Z,19.70
2024-01-16T06:15:22.191Z,19.72
2024-01-16T06:16:22.246Z,19.76
2024-01-16T06:17:22.303Z,19.78
2024-01-16T06:18:22.465Z,19.78
2024-01-16T06:19:22.935Z,19.80
2024-01-16T06:20:22.497Z,19.79
2024-01-16T06:21:24.832Z,19.78
2024-01-16T06:22:22.491Z,19.79
2024-01-16T06:23:22.513Z,19.81
2024-01-16T06:24:22.868Z,19.80
2024-01-16T06:25:22.474Z,19.80
2024-01-16T06:26:22.482Z,19.80
2024-01-16T06:27:22.463Z,19.79
2024-01-16T06:28:22.450Z,19.78
2024-01-16T06:29:31.635Z,19.78
2024-01-16T06:30:22.698Z,19.77
2024-01-16T06:31:22.660Z,19.77
2024-01-16T06:32:22.451Z,19.77
2024-01-16T06:33:22.573Z,19.77
2024-01-16T06:34:22.496Z,19.76
2024-01-16T06:35:22.467Z,19.75
2024-01-16T06:36:22.428Z,19.76
2024-01-16T06:37:22.865Z,19.77
2024-01-16T06:38:22.411Z,19.78
2024-01-16T06:39:22.421Z,19.78
2024-01-16T06:40:22.882Z,19.81
2024-01-16T06:41:22.454Z,19.83
2024-01-16T06:42:22.898Z,19.83
2024-01-16T06:43:22.391Z,19.84
2024-01-16T06:44:22.894Z,19.82
2024-01-16T06:45:22.389Z,19.81
2024-01-16T06:46:22.488Z,19.80
2024-01-16T06:47:22.415Z,19.81
2024-01-16T06:48:22.669Z,19.81
2024-01-16T06:49:22.431Z,19.79
2024-01-16T06:50:22.449Z,19.80
2024-01-16T06:51:22.898Z,19.79
2024-01-16T06:52:22.447Z,19.80
2024-01-16T06:53:22.523Z,19.79
2024-01-16T06:54:22.879Z,19.76
2024-01-16T06:55:22.610Z,19.78
2024-01-16T06:56:22.699Z,19.79
2024-01-16T06:57:22.887Z,19.79
2024-01-16T06:58:22.783Z,19.80
2024-01-16T06:59:23.022Z,19.83
2024-01-16T07:00:22.897Z,19.84
2024-01-16T07:01:23.473Z,19.85
2024-01-16T07:02:23.105Z,19.81
2024-01-16T07:03:23.099Z,19.79
2024-01-16T07:04:23.493Z,19.76
2024-01-16T07:05:23.280Z,19.75
2024-01-16T07:06:23.358Z,19.75
2024-01-16T07:07:23.313Z,19.76
2024-01-16T07:08:23.432Z,19.77
2024-01-16T07:09:23.876Z,19.79
2024-01-16T07:10:23.642Z,19.81
2024-01-16T07:11:25.199Z,19.83
2024-01-16T07:12:23.500Z,19.84
2024-01-16T07:13:23.493Z,19.84
2024-01-16T07:14:23.882Z,19.85
2024-01-16T07:15:23.613Z,19.86
2024-01-16T07:16:23.464Z,19.86
2024-01-16T07:17:23.609Z,19.85
2024-01-16T07:18:23.681Z,19.85
2024-01-16T07:19:24.924Z,19.84
2024-01-16T07:20:23.571Z,19.83
2024-01-16T07:21:23.897Z,19.83
2024-01-16T07:22:23.666Z,19.83
2024-01-16T07:23:23.732Z,19.84
2024-01-16T07:24:23.912Z,19.85
2024-01-16T07:25:23.770Z,19.85
2024-01-16T07:26:23.840Z,19.85
2024-01-16T07:27:23.847Z,19.85
2024-01-16T07:28:23.908Z,19.86
2024-01-16T07:29:24.504Z,19.85
2024-01-16T07:30:24.096Z,19.86
2024-01-16T07:31:24.006Z,19.86
2024-01-16T07:32:24.088Z,19.86
2024-01-16T07:33:24.485Z,19.84
2024-01-16T07:34:24.469Z,19.80
2024-01-16T07:35:24.200Z,19.78
2024-01-16T07:36:24.239Z,19.76
2024-01-16T07:37:24.316Z,19.71
2024-01-16T07:38:24.393Z,19.69
2024-01-16T07:39:24.889Z,19.70
2024-01-16T07:40:24.494Z,19.75
2024-01-16T07:41:24.599Z,19.80
2024-01-16T07:42:24.636Z,19.89
2024-01-16T07:43:24.869Z,19.95
2024-01-16T07:44:24.775Z,20.03
2024-01-16T07:45:24.975Z,20.08
2024-01-16T07:46:25.268Z,20.09
2024-01-16T07:47:24.911Z,20.07
2024-01-16T07:48:24.993Z,20.06
2024-01-16T07:49:26.005Z,20.11
2024-01-16T07:50:25.381Z,20.09
2024-01-16T07:51:25.354Z,20.08
2024-01-16T07:52:25.506Z,20.08
2024-01-16T07:53:25.687Z,20.08
2024-01-16T07:54:33.608Z,20.11
2024-01-16T07:55:25.717Z,20.14
2024-01-16T07:56:25.559Z,20.20
2024-01-16T07:57:25.948Z,20.26
2024-01-16T07:58:25.148Z,20.32
2024-01-16T07:59:25.425Z,20.36
2024-01-16T08:00:25.169Z,20.39
2024-01-16T08:01:25.375Z,20.38
2024-01-16T08:02:26.233Z,20.35
2024-01-16T08:03:25.162Z,20.31
2024-01-16T08:04:25.101Z,20.28
2024-01-16T08:05:29.272Z,20.31
2024-01-16T08:06:25.709Z,20.32
2024-01-16T08:07:25.687Z,20.30
2024-01-16T08:08:25.791Z,20.27
2024-01-16T08:09:25.918Z,20.24
2024-01-16T08:10:25.699Z,20.22
2024-01-16T08:11:26.023Z,20.20
2024-01-16T08:12:25.816Z,20.22
2024-01-16T08:13:25.851Z,20.20
2024-01-16T08:14:26.648Z,20.20
2024-01-16T08:15:25.788Z,20.19
2024-01-16T08:16:26.286Z,20.16
2024-01-16T08:17:25.859Z,20.17
2024-01-16T08:18:25.982Z,20.15
2024-01-16T08:19:26.112Z,20.14
2024-01-16T08:20:27.632Z,20.14
2024-01-16T08:21:25.933Z,20.15
2024-01-16T08:22:25.867Z,20.13
2024-01-16T08:23:25.918Z,20.15
2024-01-16T08:24:26.106Z,20.22
2024-01-16T08:25:26.035Z,20.21
2024-01-16T08:26:25.929Z,20.21
2024-01-16T08:27:25.863Z,20.20
2024-01-16T08:28:25.946Z,20.22
2024-01-16T08:29:25.957Z,20.22
2024-01-16T08:30:26.491Z,20.28
2024-01-16T08:31:25.878Z,20.26
2024-01-16T08:32:26.105Z,20.28
2024-01-16T08:33:31.604Z,20.25
2024-01-16T08:34:26.117Z,20.28
2024-01-16T08:35:57.883Z,20.32
2024-01-16T08:36:25.889Z,20.32
2024-01-16T08:37:25.901Z,20.31
2024-01-16T08:38:33.464Z,20.28
2024-01-16T08:39:26.280Z,20.26
2024-01-16T08:40:27.001Z,20.25
2024-01-16T08:41:26.356Z,20.24
2024-01-16T08:42:25.866Z,20.21
2024-01-16T08:43:26.832Z,20.20
2024-01-16T08:44:25.883Z,20.18
2024-01-16T08:45:26.496Z,20.19
2024-01-16T08:46:25.956Z,20.18
2024-01-16T08:47:26.075Z,20.24
2024-01-16T08:48:26.239Z,20.33
2024-01-16T08:49:26.075Z,20.45
2024-01-16T08:50:26.666Z,20.50
2024-01-16T08:51:27.306Z,20.49
2024-01-16T08:52:26.101Z,20.48
2024-01-16T08:53:26.573Z,20.44
2024-01-16T08:54:26.517Z,20.42
2024-01-16T08:55:26.189Z,20.44
2024-01-16T08:56:26.272Z,20.46
2024-01-16T08:57:27.923Z,20.47
2024-01-16T08:58:26.482Z,20.45
2024-01-16T08:59:26.368Z,20.44
2024-01-16T09:00:26.940Z,20.45
2024-01-16T09:01:26.296Z,20.49
2024-01-16T09:02:26.283Z,20.50
2024-01-16T09:03:26.250Z,20.49
2024-01-16T09:04:26.227Z,20.46
2024-01-16T09:05:26.802Z,20.48
2024-01-16T09:06:26.407Z,20.57
2024-01-16T09:07:26.184Z,20.59
2024-01-16T09:08:26.351Z,20.67
2024-01-16T09:09:26.166Z,20.68
2024-01-16T09:10:26.167Z,20.75
2024-01-16T09:11:26.232Z,20.83
2024-01-16T09:12:27.149Z,20.88
2024-01-16T09:13:26.123Z,20.91
2024-01-16T09:14:26.566Z,20.94
2024-01-16T09:15:26.071Z,20.98
2024-01-16T09:16:27.056Z,21.03
2024-01-16T09:17:26.120Z,21.05
2024-01-16T09:18:26.251Z,21.05
2024-01-16T09:19:27.554Z,21.10
2024-01-16T09:20:26.049Z,21.15
2024-01-16T09:21:26.013Z,21.17
2024-01-16T09:22:26.012Z,21.14
2024-01-16T09:23:25.958Z,21.11
2024-01-16T09:24:26.053Z,21.06
2024-01-16T09:25:25.960Z,21.03
2024-01-16T09:26:26.026Z,21.00
2024-01-16T09:27:25.948Z,21.04
2024-01-16T09:28:25.923Z,21.09
2024-01-16T09:29:26.000Z,21.13
2024-01-16T09:30:26.411Z,21.16
2024-01-16T09:31:25.785Z,21.17
2024-01-16T09:32:25.844Z,21.18
2024-01-16T09:33:25.780Z,21.22
2024-01-16T09:34:26.273Z,21.18
2024-01-16T09:35:25.764Z,21.10
2024-01-16T09:36:25.684Z,21.04
2024-01-16T09:37:25.763Z,21.07
2024-01-16T09:38:25.710Z,21.12
2024-01-16T09:39:25.992Z,21.17
2024-01-16T09:40:25.712Z,21.20
2024-01-16T09:41:25.559Z,21.25
2024-01-16T09:42:28.672Z,21.27
2024-01-16T09:43:25.435Z,21.28
2024-01-16T09:44:25.510Z,21.27
2024-01-16T09:46:13.752Z,21.21
2024-01-16T09:47:14.674Z,21.20
2024-01-16T09:48:14.730Z,21.21
2024-01-16T09:49:14.789Z,21.23
2024-01-16T09:50:14.592Z,21.27
2024-01-16T09:51:14.559Z,21.27
2024-01-16T09:52:14.556Z,21.29
2024-01-16T09:53:14.769Z,21.30
2024-01-16T09:54:14.506Z,21.29
2024-01-16T09:55:14.491Z,21.28
2024-01-16T09:56:14.766Z,21.30
2024-01-16T09:57:14.487Z,21.30
2024-01-16T09:58:14.470Z,21.29
2024-01-16T09:59:14.861Z,21.29
2024-01-16T10:00:14.740Z,21.29
2024-01-16T10:01:14.547Z,21.29
2024-01-16T10:02:14.450Z,21.30
2024-01-16T10:03:14.397Z,21.30
2024-01-16T10:04:14.909Z,21.30
2024-01-16T10:05:14.494Z,21.30
2024-01-16T10:06:14.433Z,21.30
2024-01-16T10:07:14.347Z,21.30
2024-01-16T10:08:14.784Z,21.29
2024-01-16T10:09:14.736Z,21.27
2024-01-16T10:10:19.399Z,21.29
2024-01-16T10:11:14.808Z,21.28
2024-01-16T10:12:14.280Z,21.28
2024-01-16T10:13:14.278Z,21.31
2024-01-16T10:14:14.297Z,21.31
2024-01-16T10:15:14.189Z,21.32
2024-01-16T10:16:14.256Z,21.33
2024-01-16T10:17:14.157Z,21.34
2024-01-16T10:18:14.234Z,21.35
2024-01-16T10:19:14.174Z,21.35
2024-01-16T10:20:14.571Z,21.33
2024-01-16T10:21:14.067Z,21.34
2024-01-16T10:22:14.295Z,21.34
2024-01-16T10:23:14.028Z,21.34
2024-01-16T10:24:13.998Z,21.32
2024-01-16T10:25:13.976Z,21.30
2024-01-16T10:26:14.020Z,21.32
2024-01-16T10:27:14.225Z,21.35
2024-01-16T10:28:14.000Z,21.36
2024-01-16T10:29:13.958Z,21.37
2024-01-16T10:30:14.655Z,21.08
2024-01-16T10:31:14.540Z,20.46
2024-01-16T10:32:14.280Z,19.55
2024-01-16T10:33:14.327Z,18.97
2024-01-16T10:34:14.362Z,18.40
2024-01-16T10:35:14.976Z,18.00
2024-01-16T10:36:14.847Z,17.96
2024-01-16T10:37:14.733Z,18.01
2024-01-16T10:38:14.821Z,18.12
2024-01-16T10:39:14.879Z,18.23
2024-01-16T10:40:15.006Z,18.35
2024-01-16T10:41:15.318Z,18.46
2024-01-16T10:42:15.197Z,18.56
2024-01-16T10:43:15.288Z,18.67
2024-01-16T10:44:15.425Z,18.80
2024-01-16T10:45:15.479Z,18.94
2024-01-16T10:46:15.772Z,19.07
2024-01-16T10:47:16.020Z,19.21
2024-01-16T10:48:15.933Z,19.30
2024-01-16T10:49:15.760Z,19.41
2024-01-16T10:50:16.323Z,19.53
2024-01-16T10:51:15.939Z,19.63
2024-01-16T10:52:15.950Z,19.71
2024-01-16T10:53:16.041Z,19.79
2024-01-16T10:54:16.239Z,19.92
2024-01-16T10:55:16.236Z,20.05
2024-01-16T10:56:16.110Z,20.13
2024-01-16T10:57:16.119Z,20.20
2024-01-16T10:58:23.590Z,20.27
2024-01-16T10:59:16.733Z,20.32
2024-01-16T11:00:16.818Z,20.38
2024-01-16T11:01:16.571Z,20.44
2024-01-16T11:02:16.601Z,20.48
2024-01-16T11:03:16.170Z,20.56
2024-01-16T11:04:16.406Z,20.61
2024-01-16T11:05:16.223Z,20.65
2024-01-16T11:06:16.289Z,20.68
2024-01-16T11:07:16.158Z,20.74
2024-01-16T11:08:16.146Z,20.79
2024-01-16T11:09:16.135Z,20.83
2024-01-16T11:10:16.259Z,20.89
2024-01-16T11:11:16.175Z,20.94
2024-01-16T11:12:16.111Z,20.99
2024-01-16T11:13:16.107Z,21.04
2024-01-16T11:14:16.118Z,21.09
2024-01-16T11:15:17.291Z,21.14
2024-01-16T11:16:16.074Z,21.19
2024-01-16T11:17:16.094Z,21.23
2024-01-16T11:18:16.177Z,21.28
2024-01-16T11:19:25.848Z,21.30
2024-01-16T11:21:17.678Z,21.35
2024-01-16T11:22:16.430Z,21.36
2024-01-16T11:23:16.236Z,21.37
2024-01-16T11:24:16.183Z,21.40
2024-01-16T11:25:16.267Z,21.43
2024-01-16T11:26:16.171Z,21.44
2024-01-16T11:27:16.146Z,21.45
2024-01-16T11:28:16.147Z,21.47
2024-01-16T11:29:16.167Z,21.48
2024-01-16T11:30:16.295Z,21.52
2024-01-16T11:31:16.081Z,21.53
2024-01-16T11:32:23.699Z,21.54
2024-01-16T11:33:16.100Z,21.55
2024-01-16T11:34:16.257Z,21.59
2024-01-16T11:35:16.355Z,21.62
2024-01-16T11:36:15.962Z,21.63
2024-01-16T11:37:15.951Z,21.63
2024-01-16T11:38:16.331Z,21.64
2024-01-16T11:39:19.188Z,21.64
2024-01-16T11:40:16.243Z,21.66
2024-01-16T11:41:15.899Z,21.68
2024-01-16T11:42:15.891Z,21.70
2024-01-16T11:43:15.804Z,21.70
2024-01-16T11:44:15.827Z,21.72
2024-01-16T11:45:16.251Z,21.75
2024-01-16T11:46:15.756Z,21.70
2024-01-16T11:47:15.760Z,21.59
2024-01-16T11:48:15.859Z,21.43
2024-01-16T11:49:15.850Z,21.16
2024-01-16T11:50:15.809Z,20.90
2024-01-16T11:51:15.775Z,20.49
2024-01-16T11:52:15.773Z,20.39
2024-01-16T11:53:15.862Z,20.40
2024-01-16T11:54:15.800Z,20.44
2024-01-16T11:55:15.817Z,20.48
2024-01-16T11:56:16.349Z,20.54
2024-01-16T11:57:15.914Z,20.60
2024-01-16T11:58:15.833Z,20.67
2024-01-16T11:59:15.878Z,20.74
2024-01-16T12:00:16.276Z,20.81
2024-01-16T12:01:15.885Z,20.86
2024-01-16T12:02:15.841Z,20.93
2024-01-16T12:04:14.809Z,21.05
2024-01-16T12:05:15.904Z,21.11
2024-01-16T12:06:15.910Z,21.18
2024-01-16T12:07:15.841Z,21.23
2024-01-16T12:08:15.772Z,21.28
2024-01-16T12:09:15.728Z,21.34
2024-01-16T12:10:15.729Z,21.38
2024-01-16T12:11:15.765Z,21.43
2024-01-16T12:12:15.725Z,21.47
2024-01-16T12:13:15.833Z,21.51
2024-01-16T12:14:15.773Z,21.54
2024-01-16T12:15:15.619Z,21.57
2024-01-16T12:16:15.601Z,21.59
2024-01-16T12:17:15.874Z,21.62
2024-01-16T12:18:23.436Z,21.64
2024-01-16T12:19:15.650Z,21.65
2024-01-16T12:20:15.868Z,21.68
2024-01-16T12:21:15.704Z,21.70
2024-01-16T12:22:15.635Z,21.72
2024-01-16T12:23:15.491Z,21.74
2024-01-16T12:24:18.506Z,21.77
2024-01-16T12:25:15.760Z,21.77
2024-01-16T12:26:15.394Z,21.78
2024-01-16T12:27:15.342Z,21.79
2024-01-16T12:28:21.671Z,21.80
2024-01-16T12:29:15.309Z,21.80
2024-01-16T12:30:15.817Z,21.82
2024-01-16T12:31:15.248Z,21.83
2024-01-16T12:32:15.251Z,21.85
2024-01-16T12:33:15.294Z,21.86
2024-01-16T12:34:15.264Z,21.85
2024-01-16T12:35:15.356Z,21.85
2024-01-16T12:36:15.142Z,21.85
2024-01-16T12:37:15.158Z,21.85
2024-01-16T12:38:15.113Z,21.86
2024-01-16T12:39:15.274Z,21.86
2024-01-16T12:40:15.268Z,21.87
2024-01-16T12:41:15.052Z,21.90
2024-01-16T12:42:15.035Z,21.93
2024-01-16T12:43:14.980Z,21.93
2024-01-16T12:44:17.291Z,21.95
2024-01-16T12:45:15.275Z,21.95
2024-01-16T12:46:14.900Z,21.96
2024-01-16T12:47:14.925Z,21.98
2024-01-16T12:48:14.944Z,22.01
2024-01-16T12:49:15.469Z,22.02
2024-01-16T12:50:14.986Z,22.04
2024-01-16T12:51:14.828Z,22.05
2024-01-16T12:52:14.747Z,22.07
2024-01-16T12:53:14.764Z,22.08
2024-01-16T12:54:14.958Z,22.10
2024-01-16T12:55:14.666Z,22.11
2024-01-16T12:56:14.669Z,22.13
2024-01-16T12:57:14.701Z,22.16
2024-01-16T12:58:14.598Z,22.16
2024-01-16T12:59:14.815Z,22.16
2024-01-16T13:00:14.785Z,22.17
2024-01-16T13:01:14.559Z,22.18
2024-01-16T13:02:50.927Z,22.19
2024-01-16T13:03:51.891Z,22.21
2024-01-16T13:04:51.857Z,22.23
2024-01-16T13:05:51.999Z,22.25
2024-01-16T13:06:52.037Z,22.26
2024-01-16T13:07:52.342Z,22.28
2024-01-16T13:08:52.414Z,22.29
2024-01-16T13:09:52.680Z,22.31
2024-01-16T13:10:51.969Z,22.33
2024-01-16T13:11:52.186Z,22.35
2024-01-16T13:12:52.023Z,22.37
2024-01-16T13:13:52.032Z,22.39
2024-01-16T13:14:52.370Z,22.40
2024-01-16T13:15:52.081Z,22.43
2024-01-16T13:16:52.091Z,22.45
2024-01-16T13:17:52.142Z,22.46
2024-01-16T13:18:52.130Z,22.47
2024-01-16T13:19:52.344Z,22.48
2024-01-16T13:20:52.212Z,22.50
2024-01-16T13:21:52.192Z,22.52
2024-01-16T13:22:53.180Z,22.55
2024-01-16T13:23:52.225Z,22.57
2024-01-16T13:24:58.388Z,22.59
2024-01-16T13:25:52.259Z,22.61
2024-01-16T13:26:52.585Z,22.64
2024-01-16T13:27:52.267Z,22.67
2024-01-16T13:28:52.280Z,22.69
2024-01-16T13:29:53.125Z,22.70
2024-01-16T13:30:52.310Z,22.73
2024-01-16T13:31:52.309Z,22.75
2024-01-16T13:32:52.708Z,22.76
2024-01-16T13:33:52.420Z,22.79
2024-01-16T13:34:52.346Z,22.80
2024-01-16T13:35:52.369Z,22.80
2024-01-16T13:37:08.410Z,22.83
2024-01-16T13:37:52.399Z,22.83
2024-01-16T13:38:52.464Z,22.83
2024-01-16T13:39:52.418Z,22.84
2024-01-16T13:40:52.543Z,22.84
2024-01-16T13:41:52.570Z,22.85
2024-01-16T13:42:52.444Z,22.87
2024-01-16T13:43:52.456Z,22.86
2024-01-16T13:44:52.875Z,22.87
2024-01-16T13:45:53.346Z,22.88
2024-01-16T13:46:58.178Z,22.89
2024-01-16T13:47:52.611Z,22.89
2024-01-16T13:48:52.577Z,22.93